Time;durP1;ratioP1;P1;durP2;ratioP2;P2;SDS_P1;SDS_P2;PMS_P1;PMS_P2;Temp;Humidity;BMP_temperature;BMP_pressure;BME280_temperature;BME280_humidity;BME280_pressure;Samples;Min_cycle;Max_cycle;Signal;HPM_P1;HPM_P2
2021/12/13 00:01:12;;;;;;;21.03;15.37;;;5.80;99.90;;;;;;5042052;28;20705;-71
2021/12/13 00:03:51;;;;;;;22.77;16.00;;;5.80;99.90;;;;;;5035206;28;20735;-70
2021/12/13 00:06:23;;;;;;;22.87;15.43;;;5.80;99.90;;;;;;5032546;28;20834;-70
2021/12/13 00:08:52;;;;;;;20.97;16.63;;;5.80;99.90;;;;;;5028785;28;20239;-72
2021/12/13 00:11:24;;;;;;;23.17;15.30;;;5.80;99.90;;;;;;5037706;28;20249;-71
2021/12/13 00:13:59;;;;;;;20.87;16.00;;;5.80;99.90;;;;;;5031978;28;20206;-72
2021/12/13 00:16:29;;;;;;;23.13;16.03;;;5.80;99.90;;;;;;5031685;28;20317;-72
2021/12/13 00:19:00;;;;;;;19.27;14.33;;;5.80;99.90;;;;;;5030067;28;20274;-74
2021/12/13 00:21:36;;;;;;;21.80;16.23;;;5.80;99.90;;;;;;5033719;28;20202;-72
2021/12/13 00:24:09;;;;;;;22.47;16.37;;;5.80;99.90;;;;;;5032101;28;20256;-72
2021/12/13 00:26:49;;;;;;;25.63;16.80;;;5.80;99.90;;;;;;5032621;28;20172;-71
2021/12/13 00:29:23;;;;;;;23.17;17.07;;;5.80;99.90;;;;;;5030955;28;20203;-71
2021/12/13 00:32:05;;;;;;;20.93;15.70;;;5.80;99.90;;;;;;5032523;28;20226;-70
2021/12/13 00:34:37;;;;;;;24.43;16.30;;;5.90;99.90;;;;;;5026993;28;20253;-70
2021/12/13 00:37:11;;;;;;;23.40;16.53;;;5.90;99.90;;;;;;5032335;28;20194;-77
2021/12/13 00:40:02;;;;;;;25.30;17.10;;;5.90;99.90;;;;;;5037508;28;20245;-71
2021/12/13 00:43:00;;;;;;;24.03;15.73;;;5.90;99.90;;;;;;5030200;28;21099;-69
2021/12/13 00:45:30;;;;;;;20.80;14.87;;;5.90;99.90;;;;;;5026780;28;20490;-70
2021/12/13 00:47:56;;;;;;;20.67;15.27;;;6.00;99.90;;;;;;5051545;28;20259;-70
2021/12/13 00:50:33;;;;;;;22.10;15.20;;;6.00;99.90;;;;;;5036844;28;20187;-71
2021/12/13 00:52:59;;;;;;;22.50;15.57;;;6.00;99.90;;;;;;5028818;28;20202;-74
2021/12/13 00:55:31;;;;;;;23.50;16.43;;;6.00;99.90;;;;;;5031939;28;20203;-73
2021/12/13 00:58:03;;;;;;;21.13;14.87;;;6.10;99.90;;;;;;5036182;28;20292;-84
2021/12/13 01:00:51;;;;;;;22.93;15.97;;;6.10;99.90;;;;;;5034336;28;20208;-74
2021/12/13 01:03:27;;;;;;;22.10;16.33;;;6.10;99.90;;;;;;5031908;28;20918;-74
2021/12/13 01:06:31;;;;;;;21.30;15.13;;;6.20;99.90;;;;;;5034620;28;20190;-73
2021/12/13 01:09:18;;;;;;;21.63;16.13;;;6.10;99.90;;;;;;5036543;28;20686;-75
2021/12/13 01:11:55;;;;;;;24.23;17.87;;;6.10;99.90;;;;;;5035071;28;20222;-75
2021/12/13 01:14:52;;;;;;;22.17;15.47;;;6.20;99.90;;;;;;5034517;28;20213;-74
2021/12/13 01:20:27;;;;;;;25.00;16.00;;;6.10;99.90;;;;;;5034673;28;20187;-71
2021/12/13 01:23:00;;;;;;;24.33;15.67;;;6.20;99.90;;;;;;5032533;28;20210;-70
2021/12/13 01:28:38;;;;;;;23.37;15.83;;;6.20;99.90;;;;;;5045892;28;20207;-71
2021/12/13 01:31:10;;;;;;;20.83;15.67;;;6.20;99.90;;;;;;5040040;28;20210;-70
2021/12/13 01:33:40;;;;;;;23.87;15.20;;;6.20;99.90;;;;;;5031721;28;20191;-73
2021/12/13 01:36:21;;;;;;;24.87;16.73;;;6.20;99.90;;;;;;5037336;28;20219;-74
2021/12/13 01:38:55;;;;;;;24.03;15.83;;;6.20;99.90;;;;;;5030550;28;20192;-73
2021/12/13 01:41:29;;;;;;;20.90;15.83;;;6.20;99.90;;;;;;5035999;28;20705;-76
2021/12/13 01:44:00;;;;;;;24.53;17.00;;;6.20;99.90;;;;;;5032623;28;20540;-74
2021/12/13 01:46:26;;;;;;;25.43;17.10;;;6.20;99.90;;;;;;5033286;28;20416;-73
2021/12/13 01:48:54;;;;;;;23.37;15.63;;;6.20;99.90;;;;;;5037386;28;20198;-71
2021/12/13 01:51:26;;;;;;;24.07;15.77;;;6.20;99.90;;;;;;5035016;28;20301;-71
2021/12/13 01:53:59;;;;;;;24.23;16.70;;;6.20;99.90;;;;;;5032010;28;20196;-70
2021/12/13 02:00:07;;;;;;;20.87;15.50;;;6.20;99.90;;;;;;5047519;28;20200;-70
2021/12/13 02:02:40;;;;;;;21.93;15.93;;;6.30;99.90;;;;;;5029334;28;20188;-71
2021/12/13 02:05:24;;;;;;;23.27;15.03;;;6.20;99.90;;;;;;5031058;28;20172;-72
2021/12/13 02:07:52;;;;;;;27.57;16.90;;;6.30;99.90;;;;;;5030377;28;20232;-71
2021/12/13 02:10:43;;;;;;;23.70;15.43;;;6.30;99.90;;;;;;5035470;28;20183;-72
2021/12/13 02:13:20;;;;;;;22.77;15.33;;;6.20;99.90;;;;;;5031998;28;20199;-70
2021/12/13 02:18:37;;;;;;;25.30;16.70;;;6.20;99.90;;;;;;5031896;28;20194;-70
2021/12/13 02:21:16;;;;;;;26.47;16.17;;;6.30;99.90;;;;;;5034848;28;20196;-66
2021/12/13 02:23:46;;;;;;;24.60;16.83;;;6.30;99.90;;;;;;5039681;28;20179;-67
2021/12/13 02:26:14;;;;;;;24.47;15.97;;;6.30;99.90;;;;;;5029373;28;20222;-66
2021/12/13 02:28:43;;;;;;;25.73;15.80;;;6.30;99.90;;;;;;5035619;28;20218;-66
2021/12/13 02:31:14;;;;;;;24.93;16.43;;;6.40;99.90;;;;;;5033106;28;20203;-66
2021/12/13 02:33:45;;;;;;;21.47;15.00;;;6.50;99.90;;;;;;5031533;28;20186;-67
2021/12/13 02:36:13;;;;;;;25.07;15.90;;;6.50;99.90;;;;;;5030371;28;20226;-65
2021/12/13 02:38:41;;;;;;;22.77;14.67;;;6.40;99.90;;;;;;5037061;28;20191;-65
2021/12/13 02:41:08;;;;;;;23.60;15.43;;;6.30;99.90;;;;;;5038698;28;20207;-66
2021/12/13 02:43:38;;;;;;;24.93;15.10;;;6.30;99.90;;;;;;5056731;28;20662;-66
2021/12/13 02:46:05;;;;;;;29.00;17.60;;;6.30;99.90;;;;;;5024518;28;20207;-66
2021/12/13 02:48:50;;;;;;;22.60;14.60;;;6.30;99.90;;;;;;5047201;28;20751;-66
2021/12/13 02:51:22;;;;;;;23.20;16.40;;;6.30;99.90;;;;;;5033502;28;20209;-66
2021/12/13 02:53:56;;;;;;;22.57;16.37;;;6.30;99.90;;;;;;5026787;28;20203;-65
2021/12/13 02:56:27;;;;;;;23.23;16.03;;;6.30;99.90;;;;;;5030008;28;20226;-66
2021/12/13 02:58:55;;;;;;;21.20;14.07;;;6.30;99.90;;;;;;5026944;28;20196;-67
2021/12/13 03:01:36;;;;;;;23.10;15.37;;;6.50;99.90;;;;;;5034302;28;20207;-66
2021/12/13 03:04:06;;;;;;;24.77;16.03;;;6.50;99.90;;;;;;5057136;28;20285;-66
2021/12/13 03:06:38;;;;;;;25.83;16.53;;;6.50;99.90;;;;;;5024000;28;20207;-66
2021/12/13 03:09:09;;;;;;;23.57;15.37;;;6.40;99.90;;;;;;5026002;28;20769;-65
2021/12/13 03:11:35;;;;;;;26.80;16.20;;;6.50;99.90;;;;;;5024701;28;20210;-66
2021/12/13 03:14:25;;;;;;;23.67;14.67;;;6.50;99.90;;;;;;5051187;28;20203;-66
2021/12/13 03:17:20;;;;;;;24.63;14.43;;;6.50;99.90;;;;;;5028269;28;20226;-66
2021/12/13 03:20:00;;;;;;;24.47;14.73;;;6.50;99.90;;;;;;5032576;28;20183;-66
2021/12/13 03:22:45;;;;;;;23.83;14.33;;;6.50;99.90;;;;;;5037774;28;20633;-67
2021/12/13 03:25:14;;;;;;;22.03;14.70;;;6.50;99.90;;;;;;5023559;28;20219;-66
2021/12/13 03:28:09;;;;;;;22.37;14.20;;;6.50;99.90;;;;;;5027680;28;20186;-66
2021/12/13 03:30:49;;;;;;;22.70;14.83;;;6.50;99.90;;;;;;5032788;28;20260;-66
2021/12/13 03:33:19;;;;;;;21.10;14.43;;;6.60;99.90;;;;;;5043388;28;20207;-67
2021/12/13 03:35:56;;;;;;;29.00;16.23;;;6.60;99.90;;;;;;5026470;28;20267;-66
2021/12/13 03:38:31;;;;;;;20.43;13.97;;;6.50;99.90;;;;;;5024131;28;20191;-66
2021/12/13 03:41:00;;;;;;;25.03;15.03;;;6.50;99.90;;;;;;5030778;28;20200;-66
2021/12/13 03:43:50;;;;;;;24.63;15.03;;;6.60;99.90;;;;;;5037028;28;20241;-66
2021/12/13 03:46:18;;;;;;;22.57;14.03;;;6.70;99.90;;;;;;5025949;28;20261;-67
2021/12/13 03:48:45;;;;;;;27.70;14.90;;;6.70;99.90;;;;;;5038483;28;20207;-66
2021/12/13 03:51:19;;;;;;;23.33;14.60;;;6.70;99.90;;;;;;5042911;28;20203;-66
2021/12/13 03:53:48;;;;;;;25.90;15.37;;;6.70;99.90;;;;;;5047744;28;20195;-65
2021/12/13 03:56:16;;;;;;;23.63;14.07;;;6.70;99.90;;;;;;5042192;28;20223;-66
2021/12/13 03:58:46;;;;;;;22.53;14.60;;;6.70;99.90;;;;;;5036188;28;20207;-65
2021/12/13 04:01:28;;;;;;;25.83;14.17;;;6.60;99.90;;;;;;5045444;28;20192;-65
2021/12/13 04:03:56;;;;;;;22.57;14.03;;;6.50;99.90;;;;;;5023796;28;20199;-66
2021/12/13 04:06:22;;;;;;;24.37;14.90;;;6.60;99.90;;;;;;5060053;28;20195;-64
2021/12/13 04:08:50;;;;;;;23.30;14.03;;;6.60;99.90;;;;;;5038362;28;20207;-64
2021/12/13 04:11:16;;;;;;;22.37;13.67;;;6.50;99.90;;;;;;5052010;28;20199;-66
2021/12/13 04:13:46;;;;;;;24.50;14.53;;;6.60;99.90;;;;;;5034198;28;20783;-66
2021/12/13 04:17:19;;;;;;;22.33;13.90;;;6.50;99.90;;;;;;5057774;28;20272;-65
2021/12/13 04:19:22;;;;;;;22.20;14.23;;;6.50;99.90;;;;;;5032621;28;20203;-66
2021/12/13 04:21:58;;;;;;;25.67;13.47;;;6.60;99.90;;;;;;5051776;28;20648;-64
2021/12/13 04:24:42;;;;;;;23.30;15.17;;;6.60;99.90;;;;;;5045173;28;20222;-65
2021/12/13 04:27:17;;;;;;;24.17;13.83;;;6.60;99.90;;;;;;5034510;28;20210;-66
2021/12/13 04:29:44;;;;;;;23.60;13.73;;;6.70;99.90;;;;;;5029633;28;20667;-65
2021/12/13 04:32:30;;;;;;;24.40;14.37;;;6.80;99.90;;;;;;5044408;28;20199;-65
2021/12/13 04:34:58;;;;;;;21.33;13.70;;;6.70;99.90;;;;;;5035011;28;20665;-66
2021/12/13 04:37:27;;;;;;;27.80;14.50;;;6.80;99.90;;;;;;5040161;28;20215;-65
2021/12/13 04:39:57;;;;;;;25.33;14.17;;;6.60;99.90;;;;;;5037914;28;20188;-66
2021/12/13 04:42:25;;;;;;;20.20;11.87;;;6.70;99.90;;;;;;5028168;28;20241;-66
2021/12/13 04:45:00;;;;;;;23.27;13.03;;;6.60;99.90;;;;;;5028509;28;20191;-65
2021/12/13 04:47:37;;;;;;;28.63;13.33;;;6.70;99.90;;;;;;5029013;28;20195;-65
2021/12/13 04:50:09;;;;;;;25.07;13.20;;;6.60;99.90;;;;;;5036780;28;20182;-66
2021/12/13 04:52:35;;;;;;;28.40;14.17;;;6.70;99.90;;;;;;5031456;28;20187;-65
2021/12/13 04:55:07;;;;;;;25.37;13.83;;;6.70;99.90;;;;;;5032883;28;20210;-66
2021/12/13 04:57:33;;;;;;;24.83;13.33;;;6.60;99.90;;;;;;5031008;28;20211;-66
2021/12/13 05:00:03;;;;;;;24.03;11.70;;;6.70;99.90;;;;;;5033524;28;20198;-66
2021/12/13 05:02:29;;;;;;;23.40;13.80;;;6.70;99.90;;;;;;5030572;28;20203;-67
2021/12/13 05:04:58;;;;;;;22.87;11.67;;;6.70;99.90;;;;;;5031589;28;20229;-65
2021/12/13 05:07:26;;;;;;;25.03;12.10;;;6.60;99.90;;;;;;5033851;28;20195;-66
2021/12/13 05:09:52;;;;;;;27.67;13.30;;;6.60;99.90;;;;;;5035130;28;20183;-66
2021/12/13 05:12:22;;;;;;;24.80;11.67;;;6.60;99.90;;;;;;5057845;28;20560;-64
2021/12/13 05:14:54;;;;;;;20.43;11.73;;;6.60;99.90;;;;;;5034962;28;20223;-64
2021/12/13 05:17:25;;;;;;;23.53;11.73;;;6.60;99.90;;;;;;5036879;28;20226;-66
2021/12/13 05:19:57;;;;;;;25.63;12.50;;;6.50;99.90;;;;;;5035001;28;20201;-64
2021/12/13 05:22:23;;;;;;;24.37;11.80;;;6.50;99.90;;;;;;5027700;28;20198;-64
2021/12/13 05:24:55;;;;;;;22.77;12.13;;;6.60;99.90;;;;;;5026398;28;20703;-64
2021/12/13 05:27:31;;;;;;;25.20;11.93;;;6.70;99.90;;;;;;5027164;28;20199;-64
2021/12/13 05:30:17;;;;;;;27.40;11.93;;;6.60;99.90;;;;;;5031874;28;20286;-65
2021/12/13 05:32:58;;;;;;;23.73;11.93;;;6.60;99.90;;;;;;5028989;28;20812;-65
2021/12/13 05:35:34;;;;;;;24.17;10.90;;;6.50;99.90;;;;;;5034399;28;20294;-65
2021/12/13 05:38:04;;;;;;;23.63;12.60;;;6.60;99.90;;;;;;5023161;28;20678;-66
2021/12/13 05:40:29;;;;;;;28.43;12.40;;;6.60;99.90;;;;;;5040755;28;20199;-64
2021/12/13 05:42:59;;;;;;;24.33;12.30;;;6.70;99.90;;;;;;5046645;28;20206;-65
2021/12/13 05:45:37;;;;;;;29.93;12.60;;;6.60;99.90;;;;;;5032156;28;20198;-65
2021/12/13 05:48:13;;;;;;;26.60;13.00;;;6.60;99.90;;;;;;5026872;28;20661;-66
2021/12/13 05:50:42;;;;;;;24.03;12.07;;;6.60;99.90;;;;;;5043450;28;20653;-66
2021/12/13 05:53:12;;;;;;;25.43;10.80;;;6.60;99.90;;;;;;5054783;28;20207;-64
2021/12/13 05:56:05;;;;;;;25.73;12.80;;;6.60;99.90;;;;;;5034048;28;20218;-64
2021/12/13 05:58:55;;;;;;;23.10;10.73;;;6.70;99.90;;;;;;5040223;28;20214;-64
2021/12/13 06:01:25;;;;;;;20.07;10.20;;;6.70;99.90;;;;;;5028164;28;20183;-65
2021/12/13 06:04:07;;;;;;;22.63;11.20;;;6.70;99.90;;;;;;5043777;28;20618;-64
2021/12/13 06:06:53;;;;;;;25.37;10.63;;;6.70;99.90;;;;;;5037944;28;20204;-65
2021/12/13 06:09:43;;;;;;;25.00;12.13;;;6.70;99.90;;;;;;5026065;28;20689;-65
2021/12/13 06:12:16;;;;;;;30.10;12.83;;;6.70;99.90;;;;;;5028500;28;20199;-65
2021/12/13 06:14:42;;;;;;;26.63;12.00;;;6.70;99.90;;;;;;5043803;28;20214;-65
2021/12/13 06:17:16;;;;;;;22.20;10.93;;;6.70;99.90;;;;;;5057355;28;20771;-65
2021/12/13 06:19:53;;;;;;;26.20;11.93;;;6.80;99.90;;;;;;5043040;28;20317;-64
2021/12/13 06:22:22;;;;;;;28.60;11.20;;;6.90;99.90;;;;;;5027623;28;20235;-64
2021/12/13 06:25:07;;;;;;;25.57;11.03;;;6.80;99.90;;;;;;5030676;28;20202;-64
2021/12/13 06:27:48;;;;;;;26.23;11.43;;;6.80;99.90;;;;;;5025712;28;20233;-64
2021/12/13 06:30:20;;;;;;;25.27;12.67;;;6.90;99.90;;;;;;5038865;28;20240;-65
2021/12/13 06:32:57;;;;;;;29.60;13.53;;;6.80;99.90;;;;;;5046567;28;20190;-65
2021/12/13 06:35:55;;;;;;;45.73;19.60;;;6.80;99.90;;;;;;5036234;28;20210;-66
2021/12/13 06:38:55;;;;;;;27.83;13.30;;;6.80;99.90;;;;;;5025571;28;20303;-65
2021/12/13 06:41:27;;;;;;;33.50;14.33;;;6.90;99.90;;;;;;5027149;28;20298;-66
2021/12/13 06:44:21;;;;;;;35.57;15.37;;;6.90;99.90;;;;;;5041001;28;20225;-65
2021/12/13 06:46:53;;;;;;;33.87;13.37;;;6.80;99.90;;;;;;5030209;28;20206;-65
2021/12/13 06:49:31;;;;;;;31.70;13.43;;;6.90;99.90;;;;;;5029105;28;20232;-65
2021/12/13 06:52:02;;;;;;;30.40;14.60;;;6.90;99.90;;;;;;5027020;28;20757;-66
2021/12/13 06:54:30;;;;;;;27.63;13.30;;;7.00;99.90;;;;;;5033822;28;20199;-65
2021/12/13 06:57:01;;;;;;;29.03;13.07;;;7.00;99.90;;;;;;5052641;28;20223;-65
2021/12/13 06:59:29;;;;;;;34.57;15.27;;;7.00;99.90;;;;;;5033023;28;21019;-65
2021/12/13 07:02:06;;;;;;;33.37;14.07;;;7.00;99.90;;;;;;5052234;28;20226;-65
2021/12/13 07:04:54;;;;;;;28.80;12.77;;;7.00;99.90;;;;;;5024945;28;20674;-65
2021/12/13 07:07:23;;;;;;;27.27;12.63;;;7.00;99.90;;;;;;5062399;28;20498;-64
2021/12/13 07:09:56;;;;;;;28.67;14.47;;;6.90;99.90;;;;;;5037557;28;20221;-66
2021/12/13 07:12:24;;;;;;;30.73;12.93;;;6.90;99.90;;;;;;5027477;28;20664;-65
2021/12/13 07:14:50;;;;;;;31.80;13.70;;;6.90;99.90;;;;;;5041954;28;20230;-65
2021/12/13 07:17:26;;;;;;;34.60;14.60;;;6.90;99.90;;;;;;5050959;28;20225;-65
2021/12/13 07:19:53;;;;;;;29.57;13.57;;;6.90;99.90;;;;;;5024773;28;20620;-65
2021/12/13 07:22:25;;;;;;;32.10;15.00;;;6.80;99.90;;;;;;5061030;28;20258;-65
2021/12/13 07:25:00;;;;;;;34.90;14.13;;;6.90;99.90;;;;;;5025350;28;20635;-64
2021/12/13 07:27:35;;;;;;;24.10;12.77;;;6.90;99.90;;;;;;5026255;28;20273;-65
2021/12/13 07:30:29;;;;;;;25.17;12.70;;;7.00;99.90;;;;;;5046483;28;20193;-65
2021/12/13 07:33:01;;;;;;;31.37;14.63;;;7.00;99.90;;;;;;5028069;28;20291;-64
2021/12/13 07:35:40;;;;;;;30.17;12.47;;;7.00;99.90;;;;;;5036823;28;20686;-64
2021/12/13 07:38:09;;;;;;;27.80;13.57;;;6.90;99.90;;;;;;5044485;28;20265;-65
2021/12/13 07:40:42;;;;;;;30.17;12.80;;;6.90;99.90;;;;;;5040492;28;20195;-65
2021/12/13 07:43:17;;;;;;;28.27;12.03;;;6.90;99.90;;;;;;5024310;28;20564;-64
2021/12/13 07:45:54;;;;;;;25.70;11.67;;;6.90;99.90;;;;;;5039890;28;20191;-63
2021/12/13 07:48:24;;;;;;;25.67;11.70;;;7.00;99.90;;;;;;5034776;28;20296;-63
2021/12/13 07:51:20;;;;;;;24.87;11.60;;;7.00;99.90;;;;;;5039273;28;20202;-63
2021/12/13 07:53:59;;;;;;;21.00;10.77;;;7.00;99.90;;;;;;5051906;28;20207;-64
2021/12/13 07:56:37;;;;;;;21.60;12.27;;;6.90;99.90;;;;;;5027345;28;20310;-64
2021/12/13 07:59:26;;;;;;;21.43;12.40;;;7.10;99.90;;;;;;5038225;28;20256;-64
2021/12/13 08:02:02;;;;;;;21.33;11.33;;;7.20;99.90;;;;;;5026552;28;20184;-63
2021/12/13 08:04:32;;;;;;;21.23;10.60;;;7.20;99.90;;;;;;5029353;28;20226;-66
2021/12/13 08:07:02;;;;;;;24.03;11.73;;;7.20;99.90;;;;;;5061761;28;20241;-65
2021/12/13 08:09:29;;;;;;;19.60;10.73;;;7.20;99.90;;;;;;5043227;28;20899;-65
2021/12/13 08:12:04;;;;;;;22.60;12.57;;;7.20;99.90;;;;;;5055531;28;20285;-65
2021/12/13 08:14:34;;;;;;;22.87;11.13;;;7.20;99.90;;;;;;5023625;28;20202;-64
2021/12/13 08:17:18;;;;;;;22.40;12.77;;;7.20;99.90;;;;;;5027379;28;20211;-65
2021/12/13 08:19:52;;;;;;;22.40;12.00;;;7.20;99.90;;;;;;5028111;28;20194;-65
2021/12/13 08:22:19;;;;;;;23.97;11.77;;;7.20;99.90;;;;;;5025953;28;20190;-66
2021/12/13 08:24:52;;;;;;;18.27;9.23;;;7.20;99.90;;;;;;5032603;28;20203;-65
2021/12/13 08:27:29;;;;;;;16.83;10.57;;;7.20;99.90;;;;;;5025656;28;20195;-66
2021/12/13 08:30:18;;;;;;;17.90;10.27;;;7.20;99.90;;;;;;5033185;28;20218;-66
2021/12/13 08:33:06;;;;;;;19.60;10.97;;;7.20;99.90;;;;;;5023690;28;20222;-66
2021/12/13 08:35:48;;;;;;;20.60;10.70;;;7.30;99.90;;;;;;5034618;28;20699;-66
2021/12/13 08:38:27;;;;;;;22.00;10.53;;;7.30;99.90;;;;;;5047415;28;20230;-67
2021/12/13 08:40:52;;;;;;;20.53;10.77;;;7.30;99.90;;;;;;5032572;28;20183;-67
2021/12/13 08:43:38;;;;;;;19.13;11.77;;;7.30;99.90;;;;;;5048903;28;20203;-66
2021/12/13 08:46:04;;;;;;;18.53;10.97;;;7.30;99.90;;;;;;5043124;28;20186;-67
2021/12/13 08:48:29;;;;;;;18.13;11.00;;;7.30;99.90;;;;;;5045654;28;20681;-65
2021/12/13 08:50:59;;;;;;;19.83;11.40;;;7.30;99.90;;;;;;5050206;28;20195;-65
2021/12/13 08:53:35;;;;;;;20.40;12.10;;;7.30;99.90;;;;;;5037738;28;20339;-64
2021/12/13 08:56:12;;;;;;;24.17;12.77;;;7.30;99.90;;;;;;5038571;28;20214;-66
2021/12/13 08:59:03;;;;;;;22.23;12.63;;;7.40;99.90;;;;;;5038371;28;20681;-65
2021/12/13 09:01:40;;;;;;;18.43;9.97;;;7.40;99.90;;;;;;5030088;28;20190;-65
2021/12/13 09:04:08;;;;;;;20.70;11.13;;;7.50;99.90;;;;;;5022961;28;20986;-65
2021/12/13 09:06:35;;;;;;;24.83;13.00;;;7.50;99.90;;;;;;5053835;28;20198;-64
2021/12/13 09:09:00;;;;;;;18.27;10.97;;;7.60;99.90;;;;;;5035957;28;20211;-64
2021/12/13 09:11:43;;;;;;;21.97;11.97;;;7.60;99.90;;;;;;5045150;28;20191;-64
2021/12/13 09:14:10;;;;;;;18.00;10.57;;;7.60;99.90;;;;;;5029995;28;20199;-64
2021/12/13 09:16:39;;;;;;;14.83;9.30;;;7.60;99.90;;;;;;5048845;28;20242;-64
2021/12/13 09:19:40;;;;;;;15.40;9.00;;;7.70;99.90;;;;;;5038375;28;20203;-64
2021/12/13 09:22:19;;;;;;;15.50;9.17;;;7.70;99.90;;;;;;5028313;28;20207;-65
2021/12/13 09:24:52;;;;;;;16.27;9.50;;;7.60;99.90;;;;;;5026683;28;20253;-65
2021/12/13 09:27:38;;;;;;;17.60;10.73;;;7.60;99.90;;;;;;5031715;28;20198;-65
2021/12/13 09:30:25;;;;;;;15.97;9.13;;;7.70;99.90;;;;;;5038521;28;20287;-64
2021/12/13 09:32:57;;;;;;;14.63;8.80;;;7.70;99.90;;;;;;5026626;28;20286;-64
2021/12/13 09:35:41;;;;;;;14.60;8.87;;;7.80;99.90;;;;;;5036809;28;20213;-65
2021/12/13 09:38:29;;;;;;;12.17;7.93;;;7.90;99.90;;;;;;5035883;28;20195;-65
2021/12/13 09:41:07;;;;;;;13.20;8.33;;;7.90;99.90;;;;;;5041057;28;20179;-65
2021/12/13 09:43:46;;;;;;;12.73;8.60;;;7.80;99.90;;;;;;5050640;28;20202;-65
2021/12/13 09:46:19;;;;;;;14.37;8.53;;;7.80;99.90;;;;;;5028239;28;20199;-65
2021/12/13 09:48:49;;;;;;;10.80;7.63;;;7.80;99.90;;;;;;5036544;28;20214;-65
2021/12/13 09:51:47;;;;;;;11.73;7.07;;;7.80;99.90;;;;;;5028214;28;20666;-65
2021/12/13 09:54:16;;;;;;;12.70;8.27;;;7.70;99.90;;;;;;5034424;28;20302;-65
2021/12/13 09:56:49;;;;;;;15.53;9.43;;;7.80;99.90;;;;;;5056420;28;20230;-66
2021/12/13 09:59:17;;;;;;;14.67;9.53;;;7.90;99.90;;;;;;5048728;28;20579;-65
2021/12/13 10:01:44;;;;;;;14.03;8.70;;;7.90;99.90;;;;;;5067191;28;20699;-65
2021/12/13 10:04:32;;;;;;;16.93;10.37;;;7.90;99.90;;;;;;5033380;28;20261;-65
2021/12/13 10:07:06;;;;;;;14.20;9.00;;;7.80;99.90;;;;;;5048539;28;20255;-65
2021/12/13 10:09:44;;;;;;;19.87;9.90;;;7.90;99.90;;;;;;5026495;28;20301;-65
2021/12/13 10:12:16;;;;;;;14.93;9.23;;;7.90;99.90;;;;;;5028139;28;20711;-66
2021/12/13 10:14:48;;;;;;;14.10;9.57;;;7.90;99.90;;;;;;5034863;28;20213;-65
2021/12/13 10:17:16;;;;;;;17.17;9.53;;;7.90;99.90;;;;;;5056376;28;20349;-66
2021/12/13 10:19:47;;;;;;;16.33;9.63;;;8.00;99.90;;;;;;5030416;28;20822;-65
2021/12/13 10:22:16;;;;;;;14.73;10.47;;;8.10;99.90;;;;;;5027822;28;20188;-65
2021/12/13 10:24:50;;;;;;;15.40;9.67;;;8.20;99.90;;;;;;5028754;28;20609;-65
2021/12/13 10:27:18;;;;;;;15.60;9.27;;;8.20;99.90;;;;;;5031915;28;20669;-65
2021/12/13 10:29:49;;;;;;;16.17;10.00;;;8.30;99.90;;;;;;5034126;28;20204;-64
2021/12/13 10:32:24;;;;;;;13.73;9.97;;;8.30;99.90;;;;;;5027711;28;20193;-63
2021/12/13 10:34:56;;;;;;;16.90;10.10;;;8.30;99.90;;;;;;5032520;28;20214;-65
2021/12/13 10:37:26;;;;;;;14.37;9.10;;;8.30;99.90;;;;;;5027229;28;20228;-64
2021/12/13 10:39:55;;;;;;;15.43;10.33;;;8.20;99.90;;;;;;5044270;28;20207;-63
2021/12/13 10:42:26;;;;;;;15.63;9.77;;;8.20;99.90;;;;;;5061894;28;20195;-65
2021/12/13 10:44:52;;;;;;;16.47;10.10;;;8.30;99.90;;;;;;5037267;28;20207;-66
2021/12/13 10:47:32;;;;;;;12.70;9.20;;;8.20;99.90;;;;;;5053963;28;20202;-66
2021/12/13 10:49:59;;;;;;;17.73;10.03;;;8.20;99.90;;;;;;5035948;28;20191;-66
2021/12/13 10:52:28;;;;;;;15.83;9.73;;;8.20;99.90;;;;;;5048759;28;20195;-66
2021/12/13 10:54:58;;;;;;;13.93;9.17;;;8.30;99.90;;;;;;5040826;28;20571;-66
2021/12/13 10:57:31;;;;;;;16.97;10.43;;;8.20;99.90;;;;;;5053037;28;20218;-66
2021/12/13 10:59:57;;;;;;;17.27;9.80;;;8.30;99.90;;;;;;5034504;28;20204;-66
2021/12/13 11:02:29;;;;;;;16.53;10.63;;;8.30;99.90;;;;;;5066021;28;20191;-66
2021/12/13 11:05:08;;;;;;;15.73;9.10;;;8.30;99.90;;;;;;5025938;28;20204;-66
2021/12/13 11:07:34;;;;;;;17.90;8.67;;;8.40;99.90;;;;;;5025563;28;20248;-66
2021/12/13 11:10:00;;;;;;;14.07;10.13;;;8.30;99.90;;;;;;5043949;28;20178;-65
2021/12/13 11:12:41;;;;;;;13.33;9.50;;;8.30;99.90;;;;;;5059515;28;20326;-65
2021/12/13 11:15:16;;;;;;;14.73;9.87;;;8.40;99.90;;;;;;5045946;28;20314;-66
2021/12/13 11:17:42;;;;;;;15.67;9.67;;;8.40;99.90;;;;;;5048076;28;20277;-64
2021/12/13 11:20:18;;;;;;;14.10;9.13;;;8.40;99.90;;;;;;5032751;28;20192;-65
2021/12/13 11:22:45;;;;;;;14.13;9.63;;;8.50;99.90;;;;;;5034080;28;20217;-65
2021/12/13 11:25:19;;;;;;;15.90;10.50;;;8.50;99.90;;;;;;5033352;28;20590;-65
2021/12/13 11:27:45;;;;;;;13.13;9.37;;;8.50;99.90;;;;;;5024652;28;20187;-65
2021/12/13 11:30:20;;;;;;;12.27;8.80;;;8.50;99.90;;;;;;5038252;28;20184;-65
2021/12/13 11:32:58;;;;;;;17.33;9.93;;;8.40;99.90;;;;;;5033942;28;20184;-65
2021/12/13 11:36:02;;;;;;;15.63;10.00;;;8.50;99.90;;;;;;5046642;28;20236;-65
2021/12/13 11:39:05;;;;;;;15.47;10.20;;;8.50;99.90;;;;;;5024726;28;20211;-65
2021/12/13 11:41:53;;;;;;;16.17;10.00;;;8.50;99.90;;;;;;5026548;28;20188;-65
2021/12/13 11:44:55;;;;;;;14.70;9.83;;;8.60;99.90;;;;;;5036920;28;20767;-65
2021/12/13 11:47:53;;;;;;;12.80;8.80;;;8.50;99.90;;;;;;5053264;28;20202;-65
2021/12/13 11:51:05;;;;;;;17.20;10.23;;;8.60;99.90;;;;;;5038769;28;20191;-66
2021/12/13 11:53:49;;;;;;;14.97;9.87;;;8.70;99.90;;;;;;5033511;28;20195;-65
2021/12/13 11:56:15;;;;;;;13.80;8.87;;;8.60;99.90;;;;;;5043022;28;20225;-65
2021/12/13 11:59:19;;;;;;;12.70;8.50;;;8.70;99.90;;;;;;5045032;28;20204;-64
2021/12/13 12:02:08;;;;;;;11.40;8.70;;;8.70;99.90;;;;;;5048919;28;20205;-67
2021/12/13 12:05:11;;;;;;;11.13;8.30;;;8.70;99.90;;;;;;5024853;28;20200;-65
2021/12/13 12:07:53;;;;;;;13.83;9.07;;;8.80;99.90;;;;;;5047693;28;20658;-66
2021/12/13 12:10:39;;;;;;;12.13;9.07;;;8.90;99.90;;;;;;5034630;28;20583;-68
2021/12/13 12:13:30;;;;;;;12.20;8.20;;;8.90;99.90;;;;;;5032299;28;20255;-67
2021/12/13 12:16:01;;;;;;;8.70;6.73;;;8.90;99.90;;;;;;5039616;28;20706;-67
2021/12/13 12:18:36;;;;;;;10.13;7.40;;;8.90;99.90;;;;;;5033858;28;20243;-66
2021/12/13 12:21:29;;;;;;;9.07;6.73;;;9.00;99.90;;;;;;5036139;28;20196;-64
2021/12/13 12:23:55;;;;;;;13.07;6.97;;;9.00;99.90;;;;;;5031995;28;20717;-66
2021/12/13 12:26:22;;;;;;;10.47;7.27;;;9.10;99.90;;;;;;5038276;28;20202;-66
2021/12/13 12:28:50;;;;;;;11.37;6.73;;;9.10;99.90;;;;;;5036834;28;20199;-65
2021/12/13 12:31:16;;;;;;;11.43;8.17;;;9.10;99.90;;;;;;5036608;28;20202;-64
2021/12/13 12:33:42;;;;;;;7.97;6.47;;;9.10;99.90;;;;;;5038315;28;20206;-75
2021/12/13 12:36:23;;;;;;;7.97;6.40;;;9.00;99.90;;;;;;5033647;28;20218;-74
2021/12/13 12:39:05;;;;;;;8.80;7.73;;;9.00;99.90;;;;;;5033605;28;20188;-73
2021/12/13 12:41:36;;;;;;;7.40;6.10;;;8.90;99.90;;;;;;5033775;28;20304;-74
2021/12/13 12:44:02;;;;;;;8.63;7.40;;;8.90;99.90;;;;;;5039744;28;20254;-74
2021/12/13 12:46:30;;;;;;;7.53;6.10;;;8.90;99.90;;;;;;5046559;28;20207;-74
2021/12/13 12:48:59;;;;;;;10.13;6.17;;;8.90;99.90;;;;;;5033750;28;20274;-72
2021/12/13 12:51:32;;;;;;;7.97;6.60;;;8.90;99.90;;;;;;5043101;28;20286;-71
2021/12/13 12:54:05;;;;;;;9.50;6.77;;;8.90;99.90;;;;;;5038459;28;20897;-71
2021/12/13 12:56:44;;;;;;;8.80;6.43;;;9.00;99.90;;;;;;5038153;28;20241;-72
2021/12/13 12:59:10;;;;;;;12.40;6.67;;;9.20;99.90;;;;;;5040054;28;20187;-72
2021/12/13 13:01:47;;;;;;;8.33;5.83;;;9.30;99.90;;;;;;5047780;28;20254;-71
2021/12/13 13:04:41;;;;;;;6.97;5.87;;;9.40;99.90;;;;;;5038337;28;20183;-71
2021/12/13 13:07:06;;;;;;;9.77;7.17;;;9.40;99.90;;;;;;5032851;28;20234;-71
2021/12/13 13:09:42;;;;;;;6.73;5.30;;;9.50;99.90;;;;;;5057363;28;20752;-70
2021/12/13 13:12:12;;;;;;;8.17;6.77;;;9.50;99.90;;;;;;5042177;28;20202;-72
2021/12/13 13:14:52;;;;;;;7.43;6.63;;;9.40;99.90;;;;;;5070032;28;20605;-70
2021/12/13 13:17:22;;;;;;;9.13;5.63;;;9.40;99.90;;;;;;5036712;28;20224;-71
2021/12/13 13:19:54;;;;;;;5.87;4.97;;;9.40;99.90;;;;;;5027471;28;20211;-73
2021/12/13 13:22:29;;;;;;;6.80;5.73;;;9.50;99.90;;;;;;5029390;28;20214;-73
2021/12/13 13:24:59;;;;;;;6.30;5.13;;;9.50;99.90;;;;;;5032960;28;20200;-71
2021/12/13 13:27:28;;;;;;;5.67;4.70;;;9.50;99.90;;;;;;5050020;28;20191;-70
2021/12/13 13:29:54;;;;;;;6.13;5.60;;;9.50;99.90;;;;;;5039362;28;20219;-71
2021/12/13 13:32:20;;;;;;;7.10;5.20;;;9.50;99.90;;;;;;5054237;28;20681;-68
2021/12/13 13:34:54;;;;;;;5.90;4.67;;;9.50;99.90;;;;;;5047937;28;20229;-70